Time;durP1;ratioP1;P1;durP2;ratioP2;P2;SDS_P1;SDS_P2;PMS_P1;PMS_P2;Temp;Humidity;BMP_temperature;BMP_pressure;BME280_temperature;BME280_humidity;BME280_pressure;Samples;Min_cycle;Max_cycle;Signal;HPM_P1;HPM_P2
2023/10/03 00:00:24;;;;;;;;;7.50;6.00;;;;;23.33;100.00;100818.44;5026081;28;45608;-77
2023/10/03 00:02:55;;;;;;;;;8.75;8.25;;;;;23.30;100.00;100825.44;5003578;28;45885;-78
2023/10/03 00:05:23;;;;;;;;;11.00;10.00;;;;;23.21;100.00;100810.41;5012815;28;45713;-77
2023/10/03 00:07:51;;;;;;;;;7.67;7.67;;;;;23.22;100.00;100817.69;5007084;28;45524;-78
2023/10/03 00:10:20;;;;;;;;;10.33;9.33;;;;;23.11;100.00;100813.28;5008976;28;45610;-77
2023/10/03 00:12:48;;;;;;;;;6.67;5.00;;;;;22.98;100.00;100810.00;5003745;28;45941;-79
2023/10/03 00:15:24;;;;;;;;;8.75;7.75;;;;;23.07;100.00;100827.81;5009621;28;46440;-79
2023/10/03 00:17:50;;;;;;;;;15.00;10.50;;;;;22.96;100.00;100811.41;5026988;28;45799;-78
2023/10/03 00:20:17;;;;;;;;;6.50;6.50;;;;;22.98;100.00;100828.72;5004790;28;45800;-79
2023/10/03 00:22:44;;;;;;;;;9.67;7.33;;;;;22.95;100.00;100827.38;5012205;28;46798;-77
2023/10/03 00:25:18;;;;;;;;;9.00;6.00;;;;;22.92;100.00;100828.78;5010325;28;46683;-79
2023/10/03 00:27:51;;;;;;;;;13.33;10.00;;;;;22.86;100.00;100824.34;5012964;28;45516;-77
2023/10/03 00:30:19;;;;;;;;;9.67;9.33;;;;;22.85;100.00;100821.84;5009803;28;45348;-79
2023/10/03 00:32:45;;;;;;;;;9.33;5.33;;;;;22.78;100.00;100819.34;5013005;28;45671;-82
2023/10/03 00:35:12;;;;;;;;;7.67;7.00;;;;;22.84;100.00;100831.34;5030968;28;47094;-83
2023/10/03 00:37:39;;;;;;;;;10.33;10.33;;;;;22.83;100.00;100840.84;5014826;28;45819;-81
2023/10/03 00:40:26;;;;;;;;;12.67;9.33;;;;;22.78;100.00;100838.09;5012419;28;45980;-79
2023/10/03 00:42:54;;;;;;;;;11.00;10.00;;;;;22.62;100.00;100812.19;5014500;28;46283;-82
2023/10/03 00:45:24;;;;;;;;;11.67;9.67;;;;;22.77;100.00;100842.00;5009538;28;45512;-77
2023/10/03 00:47:54;;;;;;;;;13.33;10.00;;;;;22.72;100.00;100849.31;5011611;28;45539;-79
2023/10/03 00:50:23;;;;;;;;;8.00;8.00;;;;;22.78;100.00;100855.69;5022208;28;45568;-78
2023/10/03 00:52:53;;;;;;;;;7.67;7.67;;;;;22.77;100.00;100855.97;5015368;28;45910;-82
2023/10/03 00:55:19;;;;;;;;;7.00;7.00;;;;;22.76;100.00;100855.16;5021524;28;47024;-82
2023/10/03 00:57:44;;;;;;;;;9.33;8.00;;;;;22.74;100.00;100852.66;5018446;28;45768;-82
2023/10/03 01:00:17;;;;;;;;;10.00;10.00;;;;;22.72;100.00;100863.31;5012891;28;45760;-79
2023/10/03 01:02:50;;;;;;;;;15.33;11.00;;;;;22.68;100.00;100866.94;5019324;28;46692;-80
2023/10/03 01:05:16;;;;;;;;;10.00;7.50;;;;;22.68;100.00;100851.00;5010625;28;45850;-79
2023/10/03 01:07:47;;;;;;;;;10.75;8.75;;;;;22.56;100.00;100840.16;5012795;28;45709;-79
2023/10/03 01:10:14;;;;;;;;;13.25;10.75;;;;;22.58;100.00;100842.69;5003912;28;45780;-80
2023/10/03 01:12:40;;;;;;;;;11.33;11.00;;;;;22.54;100.00;100845.19;5012126;28;45625;-83
2023/10/03 01:15:19;;;;;;;;;15.00;11.67;;;;;22.61;100.00;100858.03;5007429;28;46443;-79
2023/10/03 01:17:53;;;;;;;;;12.67;11.67;;;;;22.61;100.00;100867.25;5010984;28;45390;-80
2023/10/03 01:20:29;;;;;;;;;13.33;13.33;;;;;22.51;100.00;100844.94;5008274;28;45977;-79
2023/10/03 01:22:55;;;;;;;;;13.00;11.00;;;;;22.55;100.00;100855.25;5007402;28;45835;-77
2023/10/03 01:25:22;;;;;;;;;12.33;11.33;;;;;22.43;100.00;100843.59;5007632;28;45649;-80
2023/10/03 01:27:47;;;;;;;;;13.67;13.00;;;;;22.56;100.00;100864.50;5019304;28;45833;-83
2023/10/03 01:30:13;;;;;;;;;11.67;11.67;;;;;22.56;100.00;100870.09;5038398;28;45546;-77
2023/10/03 01:32:46;;;;;;;;;9.67;9.67;;;;;22.53;100.00;100865.03;5009815;28;45910;-82
2023/10/03 01:35:13;;;;;;;;;14.33;11.67;;;;;22.50;100.00;100858.09;4999010;28;46135;-81
2023/10/03 01:37:40;;;;;;;;;14.67;12.00;;;;;22.50;100.00;100854.44;5013483;28;45866;-82
2023/10/03 01:40:18;;;;;;;;;10.25;9.50;;;;;22.40;100.00;100852.53;5022417;28;45836;-79
2023/10/03 01:42:47;;;;;;;;;14.33;12.33;;;;;22.45;100.00;100874.88;5007264;28;45554;-82
2023/10/03 01:45:17;;;;;;;;;15.33;12.00;;;;;22.45;100.00;100868.44;5011160;28;48249;-81
2023/10/03 01:47:49;;;;;;;;;10.33;7.67;;;;;22.44;100.00;100867.63;5017388;28;45365;-81
2023/10/03 01:50:17;;;;;;;;;13.33;11.67;;;;;22.36;100.00;100860.66;5014900;28;45538;-81
2023/10/03 01:52:44;;;;;;;;;13.00;13.00;;;;;22.35;100.00;100860.94;5013369;28;45536;-82
2023/10/03 01:55:12;;;;;;;;;15.67;14.33;;;;;22.38;100.00;100869.59;5011690;28;46201;-78
2023/10/03 01:57:39;;;;;;;;;18.33;16.33;;;;;22.36;100.00;100880.22;5025058;28;45545;-79
2023/10/03 02:00:18;;;;;;;;;15.00;13.00;;;;;22.30;100.00;100872.94;5010224;28;45725;-80
2023/10/03 02:02:43;;;;;;;;;15.33;14.00;;;;;22.23;100.00;100861.25;5011770;28;45963;-80
2023/10/03 02:05:09;;;;;;;;;18.67;12.67;;;;;22.27;100.00;100867.09;5015293;28;45662;-82
2023/10/03 02:07:34;;;;;;;;;14.67;12.00;;;;;22.21;100.00;100871.84;5027463;28;45126;-84
2023/10/03 02:10:01;;;;;;;;;19.33;17.67;;;;;22.22;100.00;100876.34;5013646;28;45446;-81
2023/10/03 02:12:27;;;;;;;;;18.67;15.00;;;;;22.10;100.00;100861.84;5019897;28;47013;-82
2023/10/03 02:14:54;;;;;;;;;16.67;15.00;;;;;22.18;100.00;100883.59;5031098;28;47959;-83
2023/10/03 02:17:19;;;;;;;;;17.67;17.33;;;;;22.14;100.00;100880.53;5015196;28;45454;-81
2023/10/03 02:19:45;;;;;;;;;19.00;16.00;;;;;22.16;100.00;100877.47;5019361;28;45705;-83
2023/10/03 02:22:13;;;;;;;;;14.00;12.67;;;;;22.14;100.00;100871.31;5014726;28;46002;-78
2023/10/03 02:24:39;;;;;;;;;18.67;15.67;;;;;22.01;100.00;100859.63;5022074;28;48024;-79
2023/10/03 02:27:09;;;;;;;;;17.00;17.00;;;;;21.93;100.00;100853.78;5024663;28;46378;-79
2023/10/03 02:29:34;;;;;;;;;18.00;15.33;;;;;21.95;100.00;100865.53;5001712;28;45818;-80
2023/10/03 02:32:02;;;;;;;;;18.00;15.33;;;;;22.07;100.00;100888.38;5020856;28;45979;-82
2023/10/03 02:34:31;;;;;;;;;14.67;13.67;;;;;22.07;100.00;100901.53;5029032;28;47119;-79
2023/10/03 02:36:59;;;;;;;;;14.33;13.33;;;;;22.05;100.00;100893.41;5039582;28;45461;-79
2023/10/03 02:39:28;;;;;;;;;16.67;14.00;;;;;22.04;100.00;100881.41;5012372;28;45784;-80
2023/10/03 02:41:54;;;;;;;;;19.00;16.00;;;;;21.97;100.00;100869.69;5012478;28;47078;-82
2023/10/03 02:44:19;;;;;;;;;21.33;16.33;;;;;21.97;100.00;100875.25;5016383;28;46916;-82
2023/10/03 02:46:45;;;;;;;;;15.00;12.67;;;;;21.93;100.00;100874.19;5008341;28;46671;-80
2023/10/03 02:49:11;;;;;;;;;18.67;13.67;;;;;21.95;100.00;100883.09;5012193;28;45495;-80
2023/10/03 02:51:37;;;;;;;;;19.33;15.67;;;;;21.80;100.00;100869.16;5010397;28;45578;-79
2023/10/03 02:54:02;;;;;;;;;17.33;15.33;;;;;21.91;100.00;100886.75;5011070;28;45329;-82
2023/10/03 02:56:28;;;;;;;;;19.00;15.33;;;;;21.85;100.00;100883.13;5009454;28;45915;-80
2023/10/03 02:58:54;;;;;;;;;16.33;14.00;;;;;21.83;100.00;100886.19;5016604;28;45432;-82
2023/10/03 03:01:21;;;;;;;;;16.33;16.33;;;;;21.77;100.00;100872.53;5013737;28;46035;-82
2023/10/03 03:03:48;;;;;;;;;20.33;17.33;;;;;21.84;100.00;100887.00;5010440;28;45708;-81
2023/10/03 03:06:14;;;;;;;;;11.33;11.33;;;;;21.80;100.00;100889.53;5008954;28;45711;-82
2023/10/03 03:08:43;;;;;;;;;19.67;17.33;;;;;21.80;100.00;100891.50;5009613;28;45434;-83
2023/10/03 03:11:10;;;;;;;;;17.00;15.33;;;;;21.77;100.00;100897.66;5008942;28;45891;-82
2023/10/03 03:13:36;;;;;;;;;16.00;15.00;;;;;21.77;100.00;100894.88;5014670;28;45508;-80
2023/10/03 03:16:11;;;;;;;;;15.33;15.33;;;;;21.68;100.00;100889.00;5015751;28;45828;-79
2023/10/03 03:18:41;;;;;;;;;16.67;13.00;;;;;21.63;100.00;100894.56;5004836;28;45690;-79
2023/10/03 03:21:10;;;;;;;;;15.67;14.00;;;;;21.64;100.00;100894.28;5013270;28;45557;-82
2023/10/03 03:23:38;;;;;;;;;21.00;14.33;;;;;21.65;100.00;100893.19;5005845;28;48397;-84
2023/10/03 03:26:57;;;;;;;;;16.67;12.33;;;;;21.67;100.00;100899.31;5007462;28;45430;-83
2023/10/03 03:28:51;;;;;;;;;21.00;16.67;;;;;21.65;100.00;100900.72;5000008;28;45538;-82
2023/10/03 03:31:22;;;;;;;;;14.33;14.33;;;;;21.63;100.00;100903.81;5010937;28;46068;-83
2023/10/03 03:33:57;;;;;;;;;18.00;15.67;;;;;21.63;100.00;100914.97;5009718;28;48058;-82
2023/10/03 03:36:30;;;;;;;;;18.33;15.00;;;;;21.59;100.00;100911.06;5015944;28;45833;-79
2023/10/03 03:39:13;;;;;;;;;19.00;16.33;;;;;21.47;100.00;100890.94;5008958;28;46756;-79
2023/10/03 03:41:39;;;;;;;;;15.33;14.33;;;;;21.48;100.00;100890.66;5008336;28;45692;-78
2023/10/03 03:44:11;;;;;;;;;14.33;13.67;;;;;21.48;100.00;100907.41;5006365;28;46951;-79
2023/10/03 03:46:37;;;;;;;;;16.00;14.00;;;;;21.44;100.00;100902.66;5024028;28;45475;-79
2023/10/03 03:49:04;;;;;;;;;15.33;13.33;;;;;21.45;100.00;100923.84;5020393;28;45898;-79
2023/10/03 03:51:30;;;;;;;;;14.33;13.67;;;;;21.41;100.00;100914.38;5010964;28;46115;-78
2023/10/03 03:53:56;;;;;;;;;13.00;12.33;;;;;21.43;100.00;100915.75;5018196;28;46817;-82
2023/10/03 03:56:21;;;;;;;;;13.67;13.33;;;;;21.34;100.00;100915.44;5011268;28;45837;-82
2023/10/03 03:58:48;;;;;;;;;16.33;14.33;;;;;21.44;100.00;100941.72;5027033;28;45507;-82
2023/10/03 04:01:14;;;;;;;;;16.33;16.33;;;;;21.37;100.00;100939.19;5011995;28;45552;-83
2023/10/03 04:03:42;;;;;;;;;11.67;11.00;;;;;21.40;100.00;100941.41;5013787;28;47860;-80
2023/10/03 04:06:09;;;;;;;;;11.50;10.50;;;;;21.39;100.00;100950.06;5018067;28;45879;-79
2023/10/03 04:08:35;;;;;;;;;11.67;11.67;;;;;21.32;100.00;100953.13;5016613;28;45818;-78
2023/10/03 04:11:02;;;;;;;;;14.00;13.00;;;;;21.20;100.00;100936.66;5006213;28;45580;-80
2023/10/03 04:13:30;;;;;;;;;15.67;12.67;;;;;21.29;100.00;100954.50;5012714;28;47925;-83
2023/10/03 04:15:57;;;;;;;;;16.00;11.00;;;;;21.24;100.00;100948.94;5010321;28;45508;-83
2023/10/03 04:18:22;;;;;;;;;10.00;10.00;;;;;21.11;100.00;100927.16;5008191;28;45716;-81
2023/10/03 04:20:48;;;;;;;;;11.33;11.33;;;;;21.16;100.00;100953.06;5017971;28;45334;-82
2023/10/03 04:23:14;;;;;;;;;12.00;10.67;;;;;21.19;100.00;100960.06;5016274;28;47318;-82
2023/10/03 04:25:40;;;;;;;;;10.75;9.25;;;;;21.15;100.00;100968.16;5022663;28;45507;-82
2023/10/03 04:28:07;;;;;;;;;11.33;10.67;;;;;21.19;100.00;100979.59;5025413;28;45818;-83
2023/10/03 04:30:33;;;;;;;;;13.33;9.00;;;;;21.06;100.00;100957.78;5024876;28;45661;-80
2023/10/03 04:32:58;;;;;;;;;11.67;9.67;;;;;21.09;100.00;100973.97;5017380;28;45538;-79
2023/10/03 04:35:25;;;;;;;;;8.00;8.00;;;;;21.08;100.00;100975.94;5011801;28;45730;-81
2023/10/03 04:37:51;;;;;;;;;8.25;7.25;;;;;21.18;100.00;100989.06;5008067;28;45454;-81
2023/10/03 04:40:22;;;;;;;;;8.00;6.50;;;;;21.17;100.00;100985.44;5009876;28;45963;-80
2023/10/03 04:42:52;;;;;;;;;9.50;8.00;;;;;21.17;100.00;100985.44;5013391;28;45619;-81
2023/10/03 04:45:20;;;;;;;;;10.50;9.00;;;;;21.13;100.00;100989.06;5012395;28;45737;-81
2023/10/03 04:47:58;;;;;;;;;7.00;7.00;;;;;21.19;100.00;100996.31;5019833;28;45422;-78
2023/10/03 04:50:27;;;;;;;;;5.33;2.33;;;;;21.20;100.00;100977.63;5012741;28;45569;-81
2023/10/03 04:53:16;;;;;;;;;8.00;8.00;;;;;21.21;100.00;100996.06;5008519;28;47304;-81
2023/10/03 04:59:06;;;;;;;;;8.00;6.00;;;;;21.09;100.00;100965.63;5004221;28;45454;-87
2023/10/03 05:01:36;;;;;;;;;7.00;7.00;;;;;21.16;100.00;100955.03;5025284;28;47038;-82
2023/10/03 05:04:07;;;;;;;;;7.25;7.25;;;;;21.14;100.00;100951.69;5024380;28;46191;-80
2023/10/03 05:06:35;;;;;;;;;11.00;10.33;;;;;21.12;100.00;100967.84;5013485;28;46006;-84
2023/10/03 05:09:02;;;;;;;;;9.00;9.00;;;;;21.22;100.00;100990.19;5013610;28;45727;-81
2023/10/03 05:11:28;;;;;;;;;7.75;7.50;;;;;21.22;100.00;100973.47;5010985;28;46123;-82
2023/10/03 05:13:54;;;;;;;;;12.25;10.75;;;;;21.17;100.00;100976.25;5009809;28;47296;-80
2023/10/03 05:16:20;;;;;;;;;8.00;7.00;;;;;21.34;100.00;100979.63;5009533;28;46113;-81
2023/10/03 05:18:45;;;;;;;;;10.67;8.00;;;;;21.32;100.00;100981.84;5017873;28;44990;-84
2023/10/03 05:21:11;;;;;;;;;9.25;9.25;;;;;21.30;100.00;100984.09;5010057;28;45433;-82
2023/10/03 05:23:36;;;;;;;;;8.33;7.00;;;;;21.31;100.00;100996.91;5010040;28;48254;-80
2023/10/03 05:26:02;;;;;;;;;11.50;9.25;;;;;21.36;100.00;100995.25;5008997;28;45991;-84
2023/10/03 05:28:28;;;;;;;;;7.50;7.00;;;;;21.33;100.00;101000.28;5014324;28;45843;-82
2023/10/03 05:30:58;;;;;;;;;10.00;8.50;;;;;21.36;100.00;100986.88;5015251;28;45689;-82
2023/10/03 05:33:23;;;;;;;;;7.00;6.00;;;;;21.29;100.00;100993.56;5026500;28;47619;-80
2023/10/03 05:35:48;;;;;;;;;7.50;6.50;;;;;21.34;100.00;101012.28;5011036;28;46144;-80
2023/10/03 05:38:14;;;;;;;;;5.25;5.25;;;;;21.36;100.00;101025.94;5013542;28;45810;-80
2023/10/03 05:40:39;;;;;;;;;7.25;7.25;;;;;21.24;100.00;101017.81;5008115;28;45691;-80
2023/10/03 05:43:05;;;;;;;;;7.00;7.00;;;;;21.22;100.00;101014.47;5010763;28;45502;-81
2023/10/03 05:45:31;;;;;;;;;7.25;7.25;;;;;21.33;100.00;101022.59;5010834;28;45914;-81
2023/10/03 05:47:59;;;;;;;;;6.75;5.75;;;;;21.22;100.00;101020.88;5012353;28;45506;-80
2023/10/03 05:50:25;;;;;;;;;8.50;8.25;;;;;21.21;100.00;101018.38;5010336;28;45389;-79
2023/10/03 05:52:50;;;;;;;;;8.25;8.25;;;;;21.33;100.00;101042.13;5012352;28;46607;-80
2023/10/03 05:55:16;;;;;;;;;6.75;6.75;;;;;21.33;100.00;101035.69;5015413;28;45320;-80
2023/10/03 05:57:42;;;;;;;;;7.75;5.25;;;;;21.15;100.00;101011.94;5013943;28;45456;-80
2023/10/03 06:00:18;;;;;;;;;9.00;5.00;;;;;21.27;100.00;101039.59;5010756;28;45910;-80
2023/10/03 06:02:47;;;;;;;;;10.00;8.75;;;;;21.29;100.00;101054.13;5011150;28;47353;-79
2023/10/03 06:05:14;;;;;;;;;7.25;7.25;;;;;21.22;100.00;101043.19;5011984;28;45614;-82
2023/10/03 06:07:41;;;;;;;;;8.00;7.50;;;;;21.19;100.00;101040.13;5013386;28;45649;-81
2023/10/03 06:10:10;;;;;;;;;9.50;7.50;;;;;21.27;100.00;101053.53;5019029;28;46660;-81
2023/10/03 06:12:37;;;;;;;;;7.33;6.33;;;;;21.27;100.00;101037.66;5003504;28;45732;-82
2023/10/03 06:15:06;;;;;;;;;7.75;6.75;;;;;21.18;100.00;101025.31;5008354;28;46030;-81
2023/10/03 06:17:33;;;;;;;;;8.00;5.25;;;;;21.27;100.00;101034.00;5012720;28;45849;-82
2023/10/03 06:19:58;;;;;;;;;10.00;8.50;;;;;21.27;100.00;101034.88;5008375;28;46678;-81
2023/10/03 06:22:24;;;;;;;;;6.25;4.75;;;;;21.16;100.00;101021.97;5012486;28;46453;-82
2023/10/03 06:24:50;;;;;;;;;6.25;5.50;;;;;21.14;100.00;101022.25;5010544;28;45628;-81
2023/10/03 06:27:20;;;;;;;;;16.00;14.00;;;;;21.26;100.00;101033.19;5010092;28;45984;-81
2023/10/03 06:29:47;;;;;;;;;6.75;6.75;;;;;21.26;100.00;101032.34;5012635;28;45469;-81
2023/10/03 06:32:12;;;;;;;;;5.50;5.50;;;;;21.22;100.00;101036.78;5011883;28;46031;-82
2023/10/03 06:34:38;;;;;;;;;7.75;6.25;;;;;21.17;100.00;101041.22;5011419;28;45561;-80
2023/10/03 06:37:04;;;;;;;;;5.25;5.00;;;;;21.32;100.00;101065.56;5008065;28;46036;-82
2023/10/03 06:39:30;;;;;;;;;7.00;7.00;;;;;21.22;100.00;101031.22;5010284;28;46502;-81
2023/10/03 06:41:55;;;;;;;;;7.00;6.00;;;;;21.23;100.00;101033.72;5008499;28;46020;-83
2023/10/03 06:44:22;;;;;;;;;9.50;6.75;;;;;21.35;100.00;101050.22;5010827;28;45509;-81
2023/10/03 06:46:51;;;;;;;;;7.25;6.00;;;;;21.27;100.00;101032.06;5013915;28;45692;-85
2023/10/03 06:49:19;;;;;;;;;9.25;7.75;;;;;21.28;100.00;101047.69;5010984;28;46058;-79
2023/10/03 06:51:45;;;;;;;;;9.25;6.75;;;;;21.39;100.00;101070.88;5009140;28;46038;-79
2023/10/03 06:54:11;;;;;;;;;4.00;4.00;;;;;21.41;100.00;101067.84;5020137;28;45720;-82
2023/10/03 06:56:36;;;;;;;;;6.75;6.00;;;;;21.40;100.00;101060.56;5021258;28;45460;-83
2023/10/03 06:59:04;;;;;;;;;5.25;5.25;;;;;21.22;100.00;101048.78;5010805;28;46165;-81
2023/10/03 07:01:29;;;;;;;;;7.75;6.50;;;;;21.37;100.00;101094.59;5005947;28;47359;-81
2023/10/03 07:03:56;;;;;;;;;6.00;5.00;;;;;21.32;100.00;101104.63;5024728;28;46056;-82
2023/10/03 07:06:22;;;;;;;;;5.50;5.25;;;;;21.36;100.00;101113.25;5028421;28;45450;-84
2023/10/03 07:08:48;;;;;;;;;6.00;6.00;;;;;21.39;100.00;101109.09;5011828;28;47466;-85
2023/10/03 07:11:16;;;;;;;;;5.25;4.50;;;;;21.24;100.00;101107.94;5012377;28;45966;-83
2023/10/03 07:13:43;;;;;;;;;6.50;6.50;;;;;21.31;100.00;101124.41;5011409;28;45881;-84
2023/10/03 07:16:09;;;;;;;;;5.25;5.00;;;;;21.32;100.00;101126.94;5006097;28;45737;-83
2023/10/03 07:18:35;;;;;;;;;7.50;5.75;;;;;21.26;100.00;101150.34;5015067;28;45683;-81
2023/10/03 07:21:03;;;;;;;;;4.00;4.00;;;;;21.13;100.00;101136.88;5005764;28;47689;-83
2023/10/03 07:23:28;;;;;;;;;7.00;5.00;;;;;21.16;100.00;101153.06;4998137;28;45799;-81
2023/10/03 07:25:54;;;;;;;;;5.00;5.00;;;;;21.13;100.00;101157.22;5011505;28;45802;-81
2023/10/03 07:28:19;;;;;;;;;6.00;4.75;;;;;21.03;100.00;101134.84;5010149;28;45856;-83
2023/10/03 07:30:45;;;;;;;;;6.00;6.00;;;;;21.12;100.00;101149.13;5012644;28;45928;-85
2023/10/03 07:33:11;;;;;;;;;10.00;9.75;;;;;21.05;100.00;101141.03;5013829;28;45451;-83
2023/10/03 07:35:41;;;;;;;;;8.00;8.00;;;;;21.01;100.00;101150.19;5018091;28;45522;-81
2023/10/03 07:38:10;;;;;;;;;8.00;7.00;;;;;21.09;100.00;101163.63;5014147;28;45967;-80
2023/10/03 07:40:38;;;;;;;;;25.67;19.33;;;;;21.02;100.00;101155.50;5014522;28;45583;-80
2023/10/03 07:43:06;;;;;;;;;10.67;10.67;;;;;21.02;100.00;101152.72;5014400;28;45856;-81
2023/10/03 07:45:32;;;;;;;;;9.25;7.00;;;;;20.99;100.00;101153.25;5011600;28;45822;-79
2023/10/03 07:48:04;;;;;;;;;6.75;6.75;;;;;20.97;100.00;101161.91;5013977;28;45779;-84
2023/10/03 07:50:31;;;;;;;;;7.50;5.75;;;;;20.93;100.00;101155.16;5028733;28;47894;-83
2023/10/03 07:52:57;;;;;;;;;8.25;6.00;;;;;20.92;100.00;101150.69;5017373;28;45541;-84
2023/10/03 07:55:25;;;;;;;;;8.33;6.67;;;;;20.95;100.00;101168.84;5015291;28;45541;-84
2023/10/03 07:57:54;;;;;;;;;6.67;5.00;;;;;20.91;100.00;101167.69;5031568;28;45892;-85
2023/10/03 08:00:21;;;;;;;;;8.75;6.00;;;;;20.88;100.00;101171.00;5014017;28;48245;-85
2023/10/03 08:02:49;;;;;;;;;4.25;4.00;;;;;20.87;100.00;101184.13;5006793;28;45661;-83
2023/10/03 08:05:16;;;;;;;;;6.75;6.00;;;;;20.89;100.00;101209.78;5020142;28;45534;-85
2023/10/03 08:07:47;;;;;;;;;7.00;6.75;;;;;20.60;100.00;101182.19;5015439;28;46232;-83
2023/10/03 08:10:16;;;;;;;;;5.75;4.75;;;;;20.57;100.00;101193.88;5015963;28;45800;-85
2023/10/03 08:12:42;;;;;;;;;4.00;4.00;;;;;20.55;100.00;101235.09;5015370;28;45952;-82
2023/10/03 08:15:16;;;;;;;;;4.00;3.25;;;;;20.53;100.00;101237.31;5031840;28;45531;-83
2023/10/03 08:17:49;;;;;;;;;5.00;4.00;;;;;20.53;100.00;101275.50;5030340;28;45909;-85
2023/10/03 08:20:18;;;;;;;;;4.50;4.00;;;;;20.44;100.00;101272.31;5017820;28;45489;-84
2023/10/03 08:22:50;;;;;;;;;4.75;4.25;;;;;20.25;100.00;101250.41;5019507;28;45448;-81
2023/10/03 08:25:24;;;;;;;;;4.00;4.00;;;;;20.40;100.00;101283.13;5005171;28;45544;-83
2023/10/03 08:27:50;;;;;;;;;6.00;6.00;;;;;20.35;100.00;101280.31;5014353;28;45859;-84
2023/10/03 08:30:29;;;;;;;;;5.50;5.50;;;;;20.34;100.00;101280.56;5017810;28;45954;-84
2023/10/03 08:32:57;;;;;;;;;8.00;4.00;;;;;20.29;100.00;101298.91;5015081;28;45520;-85
2023/10/03 08:35:37;;;;;;;;;4.75;3.75;;;;;20.32;100.00;101321.78;5015155;28;45617;-83
2023/10/03 08:38:09;;;;;;;;;4.00;4.00;;;;;20.21;100.00;101316.09;5014239;28;46573;-84
2023/10/03 08:40:38;;;;;;;;;4.00;4.00;;;;;20.34;100.00;101328.75;5016407;28;46111;-83
2023/10/03 08:43:08;;;;;;;;;5.00;4.25;;;;;20.28;100.00;101307.53;5016117;28;45516;-85
2023/10/03 08:45:52;;;;;;;;;6.00;4.50;;;;;20.47;100.00;101324.75;5013415;28;45457;-83
2023/10/03 08:48:24;;;;;;;;;6.25;5.25;;;;;20.54;100.00;101336.53;5029221;28;47381;-83
2023/10/03 08:50:53;;;;;;;;;5.75;5.75;;;;;20.49;100.00;101327.25;5009517;28;46922;-85
2023/10/03 08:53:26;;;;;;;;;9.67;6.67;;;;;20.60;100.00;101343.00;5014115;28;45744;-83
2023/10/03 08:55:58;;;;;;;;;4.50;4.50;;;;;20.70;100.00;101342.28;5014323;28;45458;-84
2023/10/03 08:58:27;;;;;;;;;5.00;3.75;;;;;20.63;100.00;101334.94;5005920;28;46771;-82
2023/10/03 09:00:58;;;;;;;;;5.00;5.00;;;;;20.73;100.00;101361.28;5011939;28;48155;-83
2023/10/03 09:03:47;;;;;;;;;5.75;4.50;;;;;20.74;100.00;101374.13;5013515;28;45758;-82
2023/10/03 09:06:23;;;;;;;;;4.00;4.00;;;;;20.78;100.00;101366.94;5013131;28;45365;-83
2023/10/03 09:08:51;;;;;;;;;3.25;2.75;;;;;20.94;100.00;101385.50;5003203;28;46200;-83
2023/10/03 09:11:18;;;;;;;;;4.25;3.75;;;;;21.04;100.00;101383.91;5013007;28;48137;-84
2023/10/03 09:13:48;;;;;;;;;4.25;2.50;;;;;21.27;100.00;101391.94;5014637;28;45793;-79
2023/10/03 09:16:15;;;;;;;;;4.00;4.00;;;;;21.54;100.00;101401.41;5011200;28;45528;-80
2023/10/03 09:18:41;;;;;;;;;3.00;2.00;;;;;21.65;100.00;101386.44;5013026;28;45458;-82
2023/10/03 09:21:23;;;;;;;;;1.25;1.00;;;;;21.90;100.00;101405.31;5013574;28;45635;-81
2023/10/03 09:24:09;;;;;;;;;4.50;1.50;;;;;22.82;100.00;101416.09;5015369;28;45470;-82
2023/10/03 09:27:07;;;;;;;;;2.00;2.00;;;;;24.21;100.00;101421.78;5008879;28;45783;-82
2023/10/03 09:29:33;;;;;;;;;2.25;1.00;;;;;24.77;100.00;101431.97;5012237;28;45821;-81
2023/10/03 09:32:12;;;;;;;;;0.75;0.75;;;;;24.83;100.00;101442.03;5013979;28;46036;-83
2023/10/03 09:34:40;;;;;;;;;3.50;2.75;;;;;24.76;100.00;101451.88;5014104;28;45995;-82
2023/10/03 09:37:06;;;;;;;;;2.00;2.00;;;;;24.37;100.00;101441.34;5017876;28;45910;-80
2023/10/03 09:39:39;;;;;;;;;2.00;1.00;;;;;24.11;100.00;101442.25;5014586;28;45875;-81
2023/10/03 09:42:13;;;;;;;;;5.00;5.00;;;;;24.12;100.00;101449.53;5011658;28;46305;-83
2023/10/03 09:44:41;;;;;;;;;1.00;1.00;;;;;24.37;100.00;101473.06;5011447;28;45905;-83
2023/10/03 09:47:08;;;;;;;;;3.50;2.00;;;;;24.44;100.00;101465.16;5012845;28;45517;-81
2023/10/03 09:49:38;;;;;;;;;5.25;4.75;;;;;24.61;100.00;101472.41;5012247;28;45903;-81
2023/10/03 09:52:27;;;;;;;;;3.50;2.25;;;;;24.82;100.00;101461.94;5015447;28;45930;-83
2023/10/03 09:54:56;;;;;;;;;4.00;4.00;;;;;25.14;100.00;101495.19;5013727;28;46103;-83
2023/10/03 09:57:23;;;;;;;;;4.25;4.25;;;;;25.23;100.00;101483.38;5017086;28;45513;-82
2023/10/03 09:59:49;;;;;;;;;2.50;1.50;;;;;25.59;100.00;101500.84;5000561;28;46300;-80
2023/10/03 10:02:30;;;;;;;;;3.75;2.50;;;;;25.97;100.00;101519.91;5011075;28;46805;-82
2023/10/03 10:05:03;;;;;;;;;1.25;1.25;;;;;25.95;100.00;101500.53;5012591;28;46027;-79
2023/10/03 10:07:43;;;;;;;;;2.50;2.50;;;;;26.28;100.00;101514.88;5010003;28;45545;-82
2023/10/03 10:10:14;;;;;;;;;1.00;1.00;;;;;26.81;100.00;101511.22;5009476;28;46043;-81
2023/10/03 10:13:20;;;;;;;;;4.25;2.00;;;;;26.84;100.00;101523.84;5008156;28;46652;-81
2023/10/03 10:16:03;;;;;;;;;2.75;2.00;;;;;26.87;100.00;101512.00;5008586;28;45856;-82
2023/10/03 10:18:44;;;;;;;;;3.00;1.00;;;;;26.84;100.00;101535.97;5012522;28;45466;-82
2023/10/03 10:21:36;;;;;;;;;5.00;2.00;;;;;27.26;100.00;101506.13;5010975;28;46399;-81
2023/10/03 10:24:20;;;;;;;;;1.00;1.00;;;;;28.06;100.00;101540.16;5011417;28;45659;-80
2023/10/03 10:26:52;;;;;;;;;3.00;3.00;;;;;28.69;100.00;101543.53;5012725;28;45796;-82
2023/10/03 10:29:22;;;;;;;;;4.75;1.75;;;;;29.35;100.00;101537.66;5013389;28;45547;-81
2023/10/03 10:31:57;;;;;;;;;2.00;2.00;;;;;30.10;100.00;101550.25;5019737;28;45585;-80
2023/10/03 10:34:36;;;;;;;;;4.75;4.75;;;;;30.49;99.24;101552.69;5009213;28;46971;-80
2023/10/03 10:37:10;;;;;;;;;16.00;12.25;;;;;30.70;94.47;101550.13;5012441;28;45553;-81
2023/10/03 10:39:53;;;;;;;;;2.50;2.00;;;;;30.34;90.95;101563.22;5012409;28;45564;-81
2023/10/03 10:42:25;;;;;;;;;11.50;9.00;;;;;29.99;89.35;101570.66;4998926;28;45977;-83
2023/10/03 10:45:02;;;;;;;;;2.25;2.25;;;;;29.16;90.82;101588.59;5011610;28;46359;-83
2023/10/03 10:47:33;;;;;;;;;1.50;1.50;;;;;28.59;92.39;101581.22;5010260;28;45592;-80
2023/10/03 10:50:00;;;;;;;;;4.25;4.25;;;;;28.08;94.51;101582.97;5011194;28;45805;-82
2023/10/03 10:52:29;;;;;;;;;2.00;2.00;;;;;27.78;93.57;101585.09;5011519;28;45576;-79
2023/10/03 10:54:56;;;;;;;;;5.00;3.50;;;;;27.58;95.61;101589.06;5008347;28;46096;-80
2023/10/03 10:57:26;;;;;;;;;5.00;3.00;;;;;27.14;92.97;101576.09;5011874;28;45541;-82
2023/10/03 10:59:53;;;;;;;;;3.50;2.75;;;;;27.07;93.35;101613.09;5001795;28;46008;-80
2023/10/03 11:02:24;;;;;;;;;3.00;2.25;;;;;26.89;95.06;101611.91;5009135;28;45907;-81
2023/10/03 11:04:54;;;;;;;;;8.50;7.25;;;;;26.83;97.11;101604.66;5007029;28;46285;-80
2023/10/03 11:07:25;;;;;;;;;4.25;2.25;;;;;26.75;96.09;101619.34;5005938;28;45602;-80
2023/10/03 11:09:52;;;;;;;;;4.00;3.00;;;;;26.60;95.19;101612.72;5007431;28;45720;-81
2023/10/03 11:12:28;;;;;;;;;1.50;1.50;;;;;26.23;94.80;101616.19;5004462;28;45614;-81
2023/10/03 11:14:55;;;;;;;;;5.50;3.00;;;;;26.12;95.52;101621.00;5007164;28;47194;-80
2023/10/03 11:17:25;;;;;;;;;5.00;2.75;;;;;25.71;94.45;101635.31;5010722;28;46168;-81
2023/10/03 11:19:54;;;;;;;;;2.25;2.25;;;;;25.16;93.88;101619.25;5003150;28;45588;-79
2023/10/03 11:22:20;;;;;;;;;3.00;2.00;;;;;24.89;97.18;101635.63;5011261;28;46455;-83
2023/10/03 11:24:46;;;;;;;;;2.50;2.50;;;;;24.78;98.34;101640.41;5011676;28;45496;-83